sensor_id;sensor_type;location;lat;lon;timestamp;P1;durP1;ratioP1;P2;durP2;ratioP2
71821;SDS011;64096;52.548;13.406;2022-11-15T06:01:10;24.67;;;17.38;;
71821;SDS011;64096;52.548;13.406;2022-11-15T06:03:36;26.65;;;19.00;;
71821;SDS011;64096;52.548;13.406;2022-11-15T06:06:02;24.00;;;16.90;;
71821;SDS011;64096;52.548;13.406;2022-11-15T06:08:29;24.48;;;17.00;;
71821;SDS011;64096;52.548;13.406;2022-11-15T06:10:55;23.30;;;17.20;;
71821;SDS011;64096;52.548;13.406;2022-11-15T06:13:21;27.83;;;19.58;;
71821;SDS011;64096;52.548;13.406;2022-11-15T06:15:47;25.00;;;17.40;;
71821;SDS011;64096;52.548;13.406;2022-11-15T06:18:13;26.23;;;17.95;;
71821;SDS011;64096;52.548;13.406;2022-11-15T06:20:39;25.30;;;17.17;;
71821;SDS011;64096;52.548;13.406;2022-11-15T06:23:06;22.67;;;16.35;;
71821;SDS011;64096;52.548;13.406;2022-11-15T06:25:32;24.45;;;17.38;;
71821;SDS011;64096;52.548;13.406;2022-11-15T06:27:58;25.00;;;17.73;;
71821;SDS011;64096;52.548;13.406;2022-11-15T06:30:25;25.45;;;17.30;;
71821;SDS011;64096;52.548;13.406;2022-11-15T06:32:51;23.98;;;17.00;;
71821;SDS011;64096;52.548;13.406;2022-11-15T06:35:23;27.80;;;17.98;;
71821;SDS011;64096;52.548;13.406;2022-11-15T06:37:49;26.58;;;18.70;;
71821;SDS011;64096;52.548;13.406;2022-11-15T06:40:15;25.90;;;18.52;;
71821;SDS011;64096;52.548;13.406;2022-11-15T06:42:41;25.40;;;17.63;;
71821;SDS011;64096;52.548;13.406;2022-11-15T06:45:07;25.88;;;18.58;;
71821;SDS011;64096;52.548;13.406;2022-11-15T06:47:33;25.30;;;17.70;;
71821;SDS011;64096;52.548;13.406;2022-11-15T06:49:59;29.17;;;20.10;;
71821;SDS011;64096;52.548;13.406;2022-11-15T06:52:26;25.98;;;17.55;;
71821;SDS011;64096;52.548;13.406;2022-11-15T06:54:57;24.02;;;17.45;;
71821;SDS011;64096;52.548;13.406;2022-11-15T06:57:23;25.33;;;18.38;;
71821;SDS011;64096;52.548;13.406;2022-11-15T06:59:49;24.35;;;17.13;;
71821;SDS011;64096;52.548;13.406;2022-11-15T07:02:15;24.70;;;16.95;;
71821;SDS011;64096;52.548;13.406;2022-11-15T07:04:41;25.55;;;18.35;;
71821;SDS011;64096;52.548;13.406;2022-11-15T07:07:07;24.45;;;17.10;;
71821;SDS011;64096;52.548;13.406;2022-11-15T07:09:33;23.70;;;16.30;;
71821;SDS011;64096;52.548;13.406;2022-11-15T07:11:59;34.22;;;24.13;;
71821;SDS011;64096;52.548;13.406;2022-11-15T07:14:25;36.55;;;25.30;;
71821;SDS011;64096;52.548;13.406;2022-11-15T07:16:51;28.10;;;19.35;;
71821;SDS011;64096;52.548;13.406;2022-11-15T07:19:17;26.45;;;18.38;;
71821;SDS011;64096;52.548;13.406;2022-11-15T07:21:43;24.83;;;18.20;;
71821;SDS011;64096;52.548;13.406;2022-11-15T07:24:09;27.48;;;20.40;;
71821;SDS011;64096;52.548;13.406;2022-11-15T07:26:35;39.78;;;26.40;;
71821;SDS011;64096;52.548;13.406;2022-11-15T07:29:01;40.05;;;27.45;;
71821;SDS011;64096;52.548;13.406;2022-11-15T07:31:31;28.70;;;21.17;;
71821;SDS011;64096;52.548;13.406;2022-11-15T07:33:57;24.67;;;17.70;;
71821;SDS011;64096;52.548;13.406;2022-11-15T07:36:23;25.85;;;18.23;;
71821;SDS011;64096;52.548;13.406;2022-11-15T07:38:49;24.23;;;17.27;;
71821;SDS011;64096;52.548;13.406;2022-11-15T07:41:16;25.48;;;18.75;;
71821;SDS011;64096;52.548;13.406;2022-11-15T07:43:42;26.17;;;17.60;;
71821;SDS011;64096;52.548;13.406;2022-11-15T07:46:08;26.55;;;18.52;;
71821;SDS011;64096;52.548;13.406;2022-11-15T07:48:35;24.77;;;17.60;;
71821;SDS011;64096;52.548;13.406;2022-11-15T07:51:01;26.60;;;17.98;;
71821;SDS011;64096;52.548;13.406;2022-11-15T07:53:27;26.27;;;17.95;;
71821;SDS011;64096;52.548;13.406;2022-11-15T07:55:53;31.65;;;21.13;;
71821;SDS011;64096;52.548;13.406;2022-11-15T07:58:19;26.67;;;18.60;;
71821;SDS011;64096;52.548;13.406;2022-11-15T08:00:45;25.00;;;18.23;;
71821;SDS011;64096;52.548;13.406;2022-11-15T08:03:13;25.02;;;17.88;;
71821;SDS011;64096;52.548;13.406;2022-11-15T08:05:39;26.00;;;17.67;;
71821;SDS011;64096;52.548;13.406;2022-11-15T08:08:06;26.50;;;19.13;;
71821;SDS011;64096;52.548;13.406;2022-11-15T08:10:32;25.52;;;17.52;;
71821;SDS011;64096;52.548;13.406;2022-11-15T08:13:02;26.88;;;18.35;;
71821;SDS011;64096;52.548;13.406;2022-11-15T08:15:29;22.73;;;16.27;;
71821;SDS011;64096;52.548;13.406;2022-11-15T08:17:56;23.25;;;16.13;;
71821;SDS011;64096;52.548;13.406;2022-11-15T08:20:22;25.67;;;17.55;;
71821;SDS011;64096;52.548;13.406;2022-11-15T08:22:48;26.65;;;18.10;;
71821;SDS011;64096;52.548;13.406;2022-11-15T08:25:14;24.20;;;17.13;;
71821;SDS011;64096;52.548;13.406;2022-11-15T08:27:41;24.02;;;15.90;;
71821;SDS011;64096;52.548;13.406;2022-11-15T08:30:07;31.10;;;20.08;;
71821;SDS011;64096;52.548;13.406;2022-11-15T08:32:33;26.13;;;19.02;;
71821;SDS011;64096;52.548;13.406;2022-11-15T08:35:00;26.05;;;16.95;;
71821;SDS011;64096;52.548;13.406;2022-11-15T08:37:26;22.77;;;16.92;;
71821;SDS011;64096;52.548;13.406;2022-11-15T08:39:52;23.65;;;17.40;;
71821;SDS011;64096;52.548;13.406;2022-11-15T08:42:18;20.98;;;15.00;;
71821;SDS011;64096;52.548;13.406;2022-11-15T08:44:44;20.92;;;14.73;;
71821;SDS011;64096;52.548;13.406;2022-11-15T08:47:13;23.83;;;16.67;;
71821;SDS011;64096;52.548;13.406;2022-11-15T08:49:39;22.48;;;16.92;;
71821;SDS011;64096;52.548;13.406;2022-11-15T08:52:05;23.80;;;15.75;;
71821;SDS011;64096;52.548;13.406;2022-11-15T08:54:31;23.58;;;15.95;;
71821;SDS011;64096;52.548;13.406;2022-11-15T08:56:57;22.83;;;15.50;;
71821;SDS011;64096;52.548;13.406;2022-11-15T08:59:23;19.65;;;14.27;;
71821;SDS011;64096;52.548;13.406;2022-11-15T09:01:49;21.35;;;15.32;;
71821;SDS011;64096;52.548;13.406;2022-11-15T09:04:15;20.70;;;15.40;;
71821;SDS011;64096;52.548;13.406;2022-11-15T09:06:41;22.05;;;15.88;;
71821;SDS011;64096;52.548;13.406;2022-11-15T09:09:07;21.10;;;15.18;;
71821;SDS011;64096;52.548;13.406;2022-11-15T09:11:34;21.52;;;15.38;;
71821;SDS011;64096;52.548;13.406;2022-11-15T09:14:01;20.10;;;14.88;;
71821;SDS011;64096;52.548;13.406;2022-11-15T09:16:27;31.10;;;21.00;;
71821;SDS011;64096;52.548;13.406;2022-11-15T09:18:53;29.52;;;19.80;;
71821;SDS011;64096;52.548;13.406;2022-11-15T09:21:19;29.08;;;18.15;;
71821;SDS011;64096;52.548;13.406;2022-11-15T09:23:45;25.40;;;17.42;;
71821;SDS011;64096;52.548;13.406;2022-11-15T09:26:12;24.60;;;17.80;;
71821;SDS011;64096;52.548;13.406;2022-11-15T09:28:38;25.55;;;17.70;;
71821;SDS011;64096;52.548;13.406;2022-11-15T09:31:06;22.58;;;16.00;;
71821;SDS011;64096;52.548;13.406;2022-11-15T09:33:33;22.20;;;15.82;;
71821;SDS011;64096;52.548;13.406;2022-11-15T09:36:08;24.02;;;17.55;;
71821;SDS011;64096;52.548;13.406;2022-11-15T09:38:35;21.55;;;15.88;;
71821;SDS011;64096;52.548;13.406;2022-11-15T09:53:57;20.98;;;14.27;;
71821;SDS011;64096;52.548;13.406;2022-11-15T09:56:29;17.58;;;13.30;;
71821;SDS011;64096;52.548;13.406;2022-11-15T10:01:41;19.08;;;13.35;;
71821;SDS011;64096;52.548;13.406;2022-11-15T10:04:09;18.63;;;12.68;;
71821;SDS011;64096;52.548;13.406;2022-11-15T10:06:36;17.02;;;12.27;;
71821;SDS011;64096;52.548;13.406;2022-11-15T10:09:17;18.42;;;12.68;;
71821;SDS011;64096;52.548;13.406;2022-11-15T10:11:44;18.60;;;13.25;;
71821;SDS011;64096;52.548;13.406;2022-11-15T10:14:12;19.05;;;11.90;;
71821;SDS011;64096;52.548;13.406;2022-11-15T10:19:28;16.95;;;12.38;;
71821;SDS011;64096;52.548;13.406;2022-11-15T10:24:42;15.15;;;10.45;;
71821;SDS011;64096;52.548;13.406;2022-11-15T10:27:12;16.48;;;11.50;;
71821;SDS011;64096;52.548;13.406;2022-11-15T10:32:11;15.85;;;11.38;;
71821;SDS011;64096;52.548;13.406;2022-11-15T10:34:38;15.88;;;10.77;;
71821;SDS011;64096;52.548;13.406;2022-11-15T10:37:04;17.75;;;12.27;;
71821;SDS011;64096;52.548;13.406;2022-11-15T10:39:30;15.23;;;10.52;;
71821;SDS011;64096;52.548;13.406;2022-11-15T10:41:58;13.98;;;9.95;;
71821;SDS011;64096;52.548;13.406;2022-11-15T10:44:43;14.73;;;11.23;;
71821;SDS011;64096;52.548;13.406;2022-11-15T10:47:23;14.52;;;11.02;;
71821;SDS011;64096;52.548;13.406;2022-11-15T10:52:51;14.95;;;10.32;;
71821;SDS011;64096;52.548;13.406;2022-11-15T10:57:48;18.63;;;12.70;;
71821;SDS011;64096;52.548;13.406;2022-11-15T11:03:00;16.08;;;12.25;;
71821;SDS011;64096;52.548;13.406;2022-11-15T11:07:57;15.65;;;11.13;;
71821;SDS011;64096;52.548;13.406;2022-11-15T11:10:23;16.70;;;11.82;;
71821;SDS011;64096;52.548;13.406;2022-11-15T11:12:49;15.25;;;11.93;;
71821;SDS011;64096;52.548;13.406;2022-11-15T11:15:16;17.30;;;12.25;;
71821;SDS011;64096;52.548;13.406;2022-11-15T11:25:34;18.95;;;13.55;;
71821;SDS011;64096;52.548;13.406;2022-11-15T11:31:00;16.45;;;11.98;;
71821;SDS011;64096;52.548;13.406;2022-11-15T11:33:32;19.63;;;12.38;;
71821;SDS011;64096;52.548;13.406;2022-11-15T11:36:03;15.85;;;11.75;;
71821;SDS011;64096;52.548;13.406;2022-11-15T11:38:34;17.05;;;12.70;;
71821;SDS011;64096;52.548;13.406;2022-11-15T11:43:41;15.05;;;10.82;;
71821;SDS011;64096;52.548;13.406;2022-11-15T11:49:10;19.13;;;12.65;;
71821;SDS011;64096;52.548;13.406;2022-11-15T11:51:42;18.52;;;13.25;;
71821;SDS011;64096;52.548;13.406;2022-11-15T11:54:12;17.27;;;12.50;;
71821;SDS011;64096;52.548;13.406;2022-11-15T11:56:39;15.38;;;10.93;;
71821;SDS011;64096;52.548;13.406;2022-11-15T12:01:52;16.35;;;11.15;;
71821;SDS011;64096;52.548;13.406;2022-11-15T12:04:27;19.00;;;13.13;;
71821;SDS011;64096;52.548;13.406;2022-11-15T12:09:41;22.63;;;13.73;;
71821;SDS011;64096;52.548;13.406;2022-11-15T12:17:12;16.75;;;12.52;;
71821;SDS011;64096;52.548;13.406;2022-11-15T12:19:39;17.88;;;12.70;;
71821;SDS011;64096;52.548;13.406;2022-11-15T12:22:17;18.00;;;12.93;;
71821;SDS011;64096;52.548;13.406;2022-11-15T12:29:45;17.40;;;11.10;;
71821;SDS011;64096;52.548;13.406;2022-11-15T12:34:49;14.40;;;10.00;;
71821;SDS011;64096;52.548;13.406;2022-11-15T12:40:15;14.32;;;10.15;;
71821;SDS011;64096;52.548;13.406;2022-11-15T12:47:55;15.18;;;11.23;;
71821;SDS011;64096;52.548;13.406;2022-11-15T12:51:07;17.00;;;12.85;;
71821;SDS011;64096;52.548;13.406;2022-11-15T12:58:28;15.02;;;11.55;;
71821;SDS011;64096;52.548;13.406;2022-11-15T13:01:06;18.77;;;13.18;;
71821;SDS011;64096;52.548;13.406;2022-11-15T13:03:32;18.00;;;12.75;;
71821;SDS011;64096;52.548;13.406;2022-11-15T13:06:00;17.30;;;13.02;;
71821;SDS011;64096;52.548;13.406;2022-11-15T13:16:57;16.77;;;12.05;;
71821;SDS011;64096;52.548;13.406;2022-11-15T13:19:23;16.02;;;11.48;;
71821;SDS011;64096;52.548;13.406;2022-11-15T13:21:50;17.55;;;12.00;;
71821;SDS011;64096;52.548;13.406;2022-11-15T13:24:37;16.00;;;11.82;;
71821;SDS011;64096;52.548;13.406;2022-11-15T13:27:12;18.42;;;12.30;;
71821;SDS011;64096;52.548;13.406;2022-11-15T13:29:42;13.98;;;10.23;;
71821;SDS011;64096;52.548;13.406;2022-11-15T13:32:12;14.63;;;10.27;;
71821;SDS011;64096;52.548;13.406;2022-11-15T13:34:38;14.45;;;10.30;;
71821;SDS011;64096;52.548;13.406;2022-11-15T13:39:47;16.88;;;12.02;;
71821;SDS011;64096;52.548;13.406;2022-11-15T13:42:17;16.63;;;11.52;;
71821;SDS011;64096;52.548;13.406;2022-11-15T13:45:00;14.05;;;10.15;;
71821;SDS011;64096;52.548;13.406;2022-11-15T13:47:27;14.70;;;10.20;;
71821;SDS011;64096;52.548;13.406;2022-11-15T13:49:56;14.63;;;10.15;;
71821;SDS011;64096;52.548;13.406;2022-11-15T13:52:22;14.45;;;9.63;;
71821;SDS011;64096;52.548;13.406;2022-11-15T13:54:53;15.60;;;11.30;;
71821;SDS011;64096;52.548;13.406;2022-11-15T13:57:21;15.15;;;10.55;;
71821;SDS011;64096;52.548;13.406;2022-11-15T13:59:52;13.82;;;10.90;;
